Flight Track Log - Related Links

Times and Time Zones

All times are in EDT time to prevent confusion due to time zone crossing. See the EGF5022 flight status page for this flight to view local times or setup timezone preferences in your user account.

Time Position Orientation Groundspeed Altitude Reporting Facility
EDT Latitude Longitude Course Direction KTS MPH feet Rate Location/Type
Mon 02:07:00 PM 42.9902 -89.1484 137° Southeast  Level Estimated
Mon 02:08:00 PM 42.9403 -89.0855 137° Southeast  Level Estimated
Mon 02:09:00 PM 42.8903 -89.0228 137° Southeast  Level Estimated
Mon 02:10:00 PM 42.8403 -88.9602 137° Southeast  Level Estimated
Mon 02:11:00 PM 42.7903 -88.8976 137° Southeast  Level Estimated
Mon 02:12:00 PM 42.7402 -88.8352 138° Southeast  Level Estimated
Mon 02:13:00 PM 42.6901 -88.7729 138° Southeast  Level Estimated
Mon 02:14:00 PM 42.6399 -88.7106 138° Southeast  Level Estimated
Mon 02:15:00 PM 42.5897 -88.6485 138° Southeast  Level Estimated
Mon 02:16:00 PM 42.5395 -88.5865 138° Southeast  Level Estimated
Mon 02:17:00 PM 42.4893 -88.5246 138° Southeast  Level Estimated
Mon 02:18:00 PM 42.4448 -88.4699 138° Southeast  Level Estimated
Mon 02:19:00 PM 42.3966 -88.4107 138° Southeast  Level Estimated
Mon 02:20:00 PM 42.3484 -88.3516 138° Southeast  Level Estimated
Mon 02:21:00 PM 42.3001 -88.2926 138° Southeast  Level Estimated
Mon 02:22:00 PM 42.2518 -88.2337 138° Southeast  Level Estimated
Mon 02:23:00 PM 42.2034 -88.1749 138° Southeast  Level Estimated
Mon 02:24:00 PM 42.1551 -88.1162 138° Southeast  Level Estimated
Mon 02:25:00 PM 42.1067 -88.0576 138° Southeast  Level Estimated
Mon 02:26:00 PM 42.0583 -87.9990 138° Southeast  Level Estimated
Mon 02:27:00 PM 42.0098 -87.9406 138° Southeast  Level Estimated
Mon 02:28:00 PM 41.9817 -87.9067 138° Southeast  Level Estimated
Mon 02:29:00 PM 41.9817 -87.9067 217° Southwest  Level Estimated
Mon 02:30:00 PM 41.9817 -87.9067 217° Southwest  Level Estimated

Login

Don't have an account? Register now (free) for customized features, flight alerts, and more!